createdAt,value
2022-10-11T00:01:55.004Z,6.50
2022-10-11T00:04:23.111Z,6.50
2022-10-11T00:06:49.918Z,6.40
2022-10-11T00:09:16.880Z,6.40
2022-10-11T00:11:43.575Z,6.40
2022-10-11T00:14:10.351Z,6.40
2022-10-11T00:16:40.874Z,6.40
2022-10-11T00:19:07.776Z,6.30
2022-10-11T00:21:34.478Z,6.20
2022-10-11T00:24:01.285Z,6.20
2022-10-11T00:26:28.545Z,6.20
2022-10-11T00:28:55.845Z,6.20
2022-10-11T00:31:22.698Z,6.10
2022-10-11T00:33:49.440Z,6.10
2022-10-11T00:36:17.594Z,6.10
2022-10-11T00:38:44.848Z,6.10
2022-10-11T00:41:12.074Z,6.20
2022-10-11T00:43:38.885Z,6.20
2022-10-11T00:46:07.576Z,6.10
2022-10-11T00:48:34.552Z,6.00
2022-10-11T00:51:03.296Z,6.00
2022-10-11T00:53:30.543Z,6.00
2022-10-11T00:56:12.780Z,6.00
2022-10-11T00:58:39.567Z,5.90
2022-10-11T01:01:06.476Z,5.90
2022-10-11T01:03:33.202Z,5.90
2022-10-11T01:06:00.066Z,5.90
2022-10-11T01:08:26.927Z,5.90
2022-10-11T01:10:54.204Z,5.80
2022-10-11T01:14:05.672Z,5.80
2022-10-11T01:17:00.782Z,5.80
2022-10-11T01:19:46.244Z,5.70
2022-10-11T01:22:34.701Z,5.70
2022-10-11T01:25:16.033Z,5.70
2022-10-11T01:27:51.359Z,5.70
2022-10-11T01:30:31.946Z,5.60
2022-10-11T01:33:01.386Z,5.60
2022-10-11T01:35:28.099Z,5.60
2022-10-11T01:38:04.221Z,5.70
2022-10-11T01:40:34.097Z,5.60
2022-10-11T01:43:01.666Z,5.60
2022-10-11T01:45:28.334Z,5.60
2022-10-11T01:48:08.255Z,5.60
2022-10-11T01:50:36.210Z,5.50
2022-10-11T01:53:23.997Z,5.60
2022-10-11T01:56:01.793Z,5.50
2022-10-11T01:58:35.144Z,5.50
2022-10-11T02:01:24.971Z,5.50
2022-10-11T02:04:03.609Z,5.50
2022-10-11T02:06:39.927Z,5.50
2022-10-11T02:09:17.175Z,5.50
2022-10-11T02:11:43.999Z,5.50
2022-10-11T02:14:24.726Z,5.40
2022-10-11T02:16:56.551Z,5.30
2022-10-11T02:19:26.894Z,5.30
2022-10-11T02:21:55.724Z,5.30
2022-10-11T02:24:27.657Z,5.30
2022-10-11T02:26:55.286Z,5.30
2022-10-11T02:29:23.006Z,5.30
2022-10-11T02:31:50.258Z,5.30
2022-10-11T02:34:20.487Z,5.30
2022-10-11T02:37:01.352Z,5.20
2022-10-11T02:39:46.108Z,5.20
2022-10-11T02:42:21.110Z,5.20
2022-10-11T02:44:53.360Z,5.10
2022-10-11T02:47:20.144Z,5.10
2022-10-11T02:49:46.836Z,5.10
2022-10-11T02:52:14.415Z,5.10
2022-10-11T02:54:41.107Z,5.10
2022-10-11T02:57:07.811Z,5.10
2022-10-11T02:59:34.942Z,5.00
2022-10-11T03:02:01.755Z,5.00
2022-10-11T03:04:29.728Z,5.00
2022-10-11T03:06:56.787Z,4.90
2022-10-11T03:09:23.518Z,4.90
2022-10-11T03:11:50.258Z,4.90
2022-10-11T03:14:16.907Z,4.80
2022-10-11T03:16:43.719Z,4.80
2022-10-11T03:19:10.756Z,4.80
2022-10-11T03:21:37.450Z,4.80
2022-10-11T03:24:04.512Z,4.70
2022-10-11T03:26:31.256Z,4.70
2022-10-11T03:28:58.008Z,4.70
2022-10-11T03:31:24.766Z,4.70
2022-10-11T03:33:51.476Z,4.80
2022-10-11T03:36:18.434Z,4.80
2022-10-11T03:38:45.117Z,4.70
2022-10-11T03:41:11.941Z,4.70
2022-10-11T03:43:38.641Z,4.70
2022-10-11T03:46:05.737Z,4.70
2022-10-11T03:48:33.402Z,4.60
2022-10-11T03:51:00.305Z,4.60
2022-10-11T03:53:27.079Z,4.60
2022-10-11T03:55:54.978Z,4.60
2022-10-11T03:58:22.050Z,4.60
2022-10-11T04:00:48.978Z,4.50
2022-10-11T04:03:15.987Z,4.50
2022-10-11T04:05:42.723Z,4.50
2022-10-11T04:08:12.197Z,4.50
2022-10-11T04:10:40.092Z,4.40
2022-10-11T04:13:07.408Z,4.40
2022-10-11T04:15:34.098Z,4.40
2022-10-11T04:18:01.081Z,4.50
2022-10-11T04:20:27.984Z,4.50
2022-10-11T04:22:54.726Z,4.50
2022-10-11T04:25:21.493Z,4.60
2022-10-11T04:27:48.564Z,4.50
2022-10-11T04:30:17.392Z,4.50
2022-10-11T04:32:45.104Z,4.50
2022-10-11T04:35:12.546Z,4.50
2022-10-11T04:37:39.299Z,4.50
2022-10-11T04:40:07.269Z,4.50
2022-10-11T04:42:34.538Z,4.40
2022-10-11T04:45:01.274Z,4.40
2022-10-11T04:47:28.793Z,4.40
2022-10-11T04:49:56.976Z,4.40
2022-10-11T04:52:25.897Z,4.40
2022-10-11T04:54:52.742Z,4.30
2022-10-11T04:57:19.446Z,4.30
2022-10-11T04:59:49.993Z,4.30
2022-10-11T05:02:17.698Z,4.30
2022-10-11T05:04:45.015Z,4.30
2022-10-11T05:07:12.144Z,4.30
2022-10-11T05:09:38.848Z,4.30
2022-10-11T05:12:06.289Z,4.30
2022-10-11T05:14:32.968Z,4.30
2022-10-11T05:16:59.645Z,4.30
2022-10-11T05:19:26.376Z,4.30
2022-10-11T05:21:54.907Z,4.30
2022-10-11T05:24:22.125Z,4.30
2022-10-11T05:26:49.449Z,4.30
2022-10-11T05:29:16.220Z,4.30
2022-10-11T05:31:43.269Z,4.30
2022-10-11T05:34:09.996Z,4.30
2022-10-11T05:36:37.324Z,4.20
2022-10-11T05:39:06.818Z,4.30
2022-10-11T05:41:33.504Z,4.30
2022-10-11T05:44:00.211Z,4.30
2022-10-11T05:46:26.913Z,4.30
2022-10-11T05:48:53.691Z,4.20
2022-10-11T05:51:20.380Z,4.10
2022-10-11T05:53:47.280Z,4.10
2022-10-11T05:56:21.607Z,4.10
2022-10-11T05:58:48.540Z,4.10
2022-10-11T06:01:23.373Z,4.10
2022-10-11T06:03:50.520Z,4.20
2022-10-11T06:06:17.403Z,4.20
2022-10-11T06:08:44.497Z,4.20
2022-10-11T06:11:16.548Z,4.10
2022-10-11T06:13:43.641Z,4.10
2022-10-11T06:16:10.770Z,4.10
2022-10-11T06:18:37.570Z,4.10
2022-10-11T06:21:04.486Z,4.10
2022-10-11T06:23:31.187Z,4.10
2022-10-11T06:26:02.737Z,4.10
2022-10-11T06:28:30.101Z,4.10
2022-10-11T06:30:57.091Z,4.10
2022-10-11T06:33:24.050Z,4.10
2022-10-11T06:35:56.622Z,4.20
2022-10-11T06:38:23.277Z,4.20
2022-10-11T06:40:50.108Z,4.20
2022-10-11T06:43:16.815Z,4.30
2022-10-11T06:45:43.542Z,4.30
2022-10-11T06:48:10.905Z,4.30
2022-10-11T06:50:58.425Z,4.30
2022-10-11T06:53:25.158Z,4.40
2022-10-11T06:55:51.915Z,4.50
2022-10-11T06:58:18.687Z,4.50
2022-10-11T07:00:45.478Z,4.50
2022-10-11T07:03:12.350Z,4.60
2022-10-11T07:05:39.319Z,4.60
2022-10-11T07:08:06.176Z,4.70
2022-10-11T07:10:33.056Z,4.70
2022-10-11T07:12:59.918Z,4.80
2022-10-11T07:15:26.621Z,4.80
2022-10-11T07:17:53.293Z,4.90
2022-10-11T07:20:19.945Z,4.90
2022-10-11T07:22:46.731Z,5.00
2022-10-11T07:25:13.415Z,5.00
2022-10-11T07:27:40.573Z,5.00
2022-10-11T07:30:07.919Z,5.00
2022-10-11T07:32:34.609Z,5.10
2022-10-11T07:35:01.291Z,5.10
2022-10-11T07:37:28.096Z,5.10
2022-10-11T07:39:54.794Z,5.20
2022-10-11T07:42:22.463Z,5.20
2022-10-11T07:44:49.251Z,5.20
2022-10-11T07:47:16.036Z,5.30
2022-10-11T07:49:42.688Z,5.40
2022-10-11T07:52:09.829Z,5.40
2022-10-11T07:54:36.578Z,5.40
2022-10-11T07:57:03.276Z,5.60
2022-10-11T07:59:30.163Z,5.60
2022-10-11T08:01:57.299Z,5.70
2022-10-11T08:04:24.051Z,5.80
2022-10-11T08:06:53.484Z,5.80
2022-10-11T08:09:20.492Z,5.90
2022-10-11T08:11:47.216Z,6.00
2022-10-11T08:14:13.956Z,6.10
2022-10-11T08:16:40.895Z,6.20
2022-10-11T08:19:07.848Z,6.30
2022-10-11T08:21:35.054Z,6.40
2022-10-11T08:24:03.008Z,6.60
2022-10-11T08:26:29.976Z,6.70
2022-10-11T08:28:58.422Z,6.80
2022-10-11T08:31:25.130Z,6.90
2022-10-11T08:33:51.927Z,7.00
2022-10-11T08:36:18.732Z,7.10
2022-10-11T08:38:45.458Z,7.20
2022-10-11T08:41:31.562Z,7.40
2022-10-11T08:44:14.316Z,7.40
2022-10-11T08:46:41.569Z,7.50
2022-10-11T08:49:09.783Z,7.60
2022-10-11T08:51:47.443Z,7.70
2022-10-11T08:54:36.028Z,7.80
2022-10-11T08:57:06.452Z,7.90
2022-10-11T09:00:05.763Z,8.00
2022-10-11T09:03:07.521Z,8.10
2022-10-11T09:05:36.007Z,8.20
2022-10-11T09:08:29.845Z,8.40
2022-10-11T09:11:15.575Z,8.50
2022-10-11T09:14:01.700Z,8.60
2022-10-11T09:16:55.802Z,8.80
2022-10-11T09:19:26.817Z,8.80
2022-10-11T09:22:00.006Z,8.90
2022-10-11T09:24:49.298Z,9.10
2022-10-11T09:27:50.392Z,9.20
2022-10-11T09:30:19.291Z,9.30
2022-10-11T09:32:58.847Z,9.40
2022-10-11T09:35:25.642Z,9.60
2022-10-11T09:37:54.354Z,9.70
2022-10-11T09:40:58.699Z,9.90
2022-10-11T09:43:25.344Z,10.00
2022-10-11T09:45:52.087Z,10.10
2022-10-11T09:48:23.302Z,10.20
2022-10-11T09:50:50.393Z,10.30
2022-10-11T09:53:17.179Z,10.40
2022-10-11T09:55:54.335Z,10.50
2022-10-11T09:58:27.075Z,10.70
2022-10-11T10:01:00.210Z,10.80
2022-10-11T10:03:33.271Z,10.90
2022-10-11T10:06:17.505Z,11.00
2022-10-11T10:08:47.013Z,11.20
2022-10-11T10:11:13.752Z,11.30
2022-10-11T10:13:44.587Z,11.30
2022-10-11T10:16:28.283Z,11.40
2022-10-11T10:19:16.762Z,11.50
2022-10-11T10:21:50.883Z,11.60
2022-10-11T10:24:20.163Z,11.70
2022-10-11T10:27:07.915Z,11.70
2022-10-11T10:29:35.894Z,11.90
2022-10-11T10:32:20.905Z,12.00
2022-10-11T10:35:16.767Z,12.10
2022-10-11T10:37:56.239Z,12.20
2022-10-11T10:40:34.047Z,12.30
2022-10-11T10:43:00.925Z,12.40
2022-10-11T10:45:31.165Z,12.40
2022-10-11T10:48:10.906Z,12.50
2022-10-11T10:51:22.941Z,12.50
2022-10-11T10:53:58.501Z,12.70
2022-10-11T10:56:33.360Z,12.70
2022-10-11T10:59:14.669Z,12.80
2022-10-11T11:01:56.722Z,12.90
2022-10-11T11:04:28.972Z,13.10
2022-10-11T11:07:43.879Z,13.20
2022-10-11T11:10:15.488Z,13.40
2022-10-11T11:12:58.097Z,13.70
2022-10-11T11:15:44.085Z,13.90
2022-10-11T11:18:22.880Z,14.10
2022-10-11T11:21:24.412Z,14.40
2022-10-11T11:23:57.430Z,14.80
2022-10-11T11:26:35.147Z,15.00
2022-10-11T11:29:14.250Z,15.20
2022-10-11T11:31:56.038Z,15.30
2022-10-11T11:34:25.555Z,15.20
2022-10-11T11:36:54.937Z,15.00
2022-10-11T11:39:26.846Z,14.80
2022-10-11T11:42:04.430Z,14.80
2022-10-11T11:44:32.787Z,15.00
2022-10-11T11:47:19.607Z,15.30
2022-10-11T11:50:19.144Z,15.70
2022-10-11T11:52:47.188Z,16.10
2022-10-11T11:55:44.990Z,16.50
2022-10-11T11:58:27.704Z,16.80
2022-10-11T12:01:17.633Z,17.00
2022-10-11T12:03:50.675Z,17.40
2022-10-11T12:06:19.099Z,17.50
2022-10-11T12:08:57.797Z,17.40
2022-10-11T12:11:30.484Z,17.50
2022-10-11T12:14:00.271Z,17.60
2022-10-11T12:16:27.665Z,17.60
2022-10-11T12:19:00.575Z,17.90
2022-10-11T12:21:27.142Z,18.30
2022-10-11T12:23:55.444Z,18.60
2022-10-11T12:26:28.231Z,18.80
2022-10-11T12:28:54.859Z,19.10
2022-10-11T12:31:25.291Z,19.60
2022-10-11T12:34:09.912Z,20.10
2022-10-11T12:36:43.294Z,20.60
2022-10-11T12:39:19.484Z,21.00
2022-10-11T12:41:53.491Z,21.40
2022-10-11T12:44:27.458Z,21.50
2022-10-11T12:46:54.090Z,21.50
2022-10-11T12:49:51.047Z,21.80
2022-10-11T12:52:17.806Z,21.80
2022-10-11T12:55:09.149Z,21.60
2022-10-11T12:57:54.742Z,21.60
2022-10-11T13:00:23.755Z,21.80
2022-10-11T13:02:51.024Z,21.60
2022-10-11T13:05:44.984Z,21.50
2022-10-11T13:08:16.851Z,21.50
2022-10-11T13:10:44.906Z,21.60
2022-10-11T13:13:20.440Z,21.80
2022-10-11T13:15:47.194Z,21.70
2022-10-11T13:18:14.771Z,21.70
2022-10-11T13:20:42.537Z,22.20
2022-10-11T13:23:19.950Z,22.50
2022-10-11T13:25:46.888Z,22.90
2022-10-11T13:28:14.226Z,23.20
2022-10-11T13:30:43.761Z,23.30
2022-10-11T13:33:23.706Z,23.20
2022-10-11T13:35:50.665Z,23.30
2022-10-11T13:38:23.131Z,23.20
2022-10-11T13:40:51.138Z,23.50
2022-10-11T13:43:20.568Z,23.90
2022-10-11T13:45:47.706Z,24.30
2022-10-11T13:48:15.118Z,24.70
2022-10-11T13:50:46.307Z,24.90
2022-10-11T13:53:13.058Z,25.00
2022-10-11T13:55:42.490Z,24.70
2022-10-11T13:58:21.589Z,24.40
2022-10-11T14:01:06.596Z,24.30
2022-10-11T14:03:43.020Z,23.90
2022-10-11T14:06:09.757Z,23.90
2022-10-11T14:08:42.215Z,23.70
2022-10-11T14:11:09.604Z,23.60
2022-10-11T14:13:46.935Z,23.70
2022-10-11T14:16:20.436Z,24.00
2022-10-11T14:18:47.278Z,24.20
2022-10-11T14:21:20.326Z,24.40
2022-10-11T14:23:47.795Z,24.50
2022-10-11T14:26:18.522Z,24.90
2022-10-11T14:28:46.110Z,25.00
2022-10-11T14:31:13.302Z,25.30
2022-10-11T14:33:40.106Z,25.50
2022-10-11T14:36:07.335Z,25.60
2022-10-11T14:38:34.340Z,26.00
2022-10-11T14:41:00.985Z,26.30
2022-10-11T14:43:27.910Z,26.40
2022-10-11T14:45:55.066Z,26.10
2022-10-11T14:48:43.168Z,25.90
2022-10-11T14:51:09.760Z,25.90
2022-10-11T14:53:40.879Z,25.40
2022-10-11T14:56:08.669Z,25.60
2022-10-11T14:58:35.628Z,25.80
2022-10-11T15:01:02.458Z,26.10
2022-10-11T15:03:29.587Z,26.50
2022-10-11T15:05:56.373Z,26.90
2022-10-11T15:08:23.011Z,27.10
2022-10-11T15:10:49.970Z,26.80
2022-10-11T15:13:16.701Z,26.40
2022-10-11T15:15:43.448Z,26.20
2022-10-11T15:18:12.388Z,26.20
2022-10-11T15:20:42.176Z,26.20
2022-10-11T15:23:12.156Z,26.20
2022-10-11T15:25:39.522Z,26.50
2022-10-11T15:28:06.459Z,26.50
2022-10-11T15:30:38.534Z,26.60
2022-10-11T15:33:07.881Z,27.00
2022-10-11T15:35:34.610Z,26.90
2022-10-11T15:38:01.325Z,26.60
2022-10-11T15:40:31.939Z,26.40
2022-10-11T15:42:58.652Z,26.50
2022-10-11T15:45:25.752Z,26.40
2022-10-11T15:47:52.743Z,26.40
2022-10-11T15:50:34.130Z,26.30
2022-10-11T15:53:13.676Z,26.50
2022-10-11T15:55:43.424Z,26.80
2022-10-11T15:58:15.679Z,26.90
2022-10-11T16:00:43.551Z,25.90
2022-10-11T16:03:12.939Z,25.10
2022-10-11T16:05:39.907Z,24.10
2022-10-11T16:08:06.676Z,23.20
2022-10-11T16:10:33.489Z,22.40
2022-10-11T16:13:00.287Z,21.90
2022-10-11T16:15:26.964Z,21.30
2022-10-11T16:17:53.914Z,20.80
2022-10-11T16:20:22.444Z,20.40
2022-10-11T16:22:49.734Z,20.00
2022-10-11T16:25:17.080Z,19.60
2022-10-11T16:27:44.189Z,19.20
2022-10-11T16:30:14.823Z,18.90
2022-10-11T16:32:41.553Z,18.70
2022-10-11T16:35:08.938Z,18.40
2022-10-11T16:37:36.365Z,18.20
2022-10-11T16:40:03.754Z,18.00
2022-10-11T16:42:30.599Z,17.90
2022-10-11T16:44:57.277Z,17.60
2022-10-11T16:47:24.037Z,17.50
2022-10-11T16:49:50.853Z,17.20
2022-10-11T16:52:17.527Z,17.10
2022-10-11T16:54:46.956Z,16.90
2022-10-11T16:57:15.040Z,16.80
2022-10-11T16:59:41.838Z,16.60
2022-10-11T17:02:13.922Z,16.50
2022-10-11T17:04:40.643Z,16.30
2022-10-11T17:07:12.678Z,16.10
2022-10-11T17:09:43.895Z,15.80
2022-10-11T17:12:12.935Z,15.60
2022-10-11T17:14:40.362Z,15.40
2022-10-11T17:17:07.522Z,15.20
2022-10-11T17:19:34.264Z,14.90
2022-10-11T17:22:00.904Z,14.70
2022-10-11T17:24:27.750Z,14.60
2022-10-11T17:26:54.572Z,14.40
2022-10-11T17:29:21.972Z,14.20
2022-10-11T17:31:49.464Z,14.00
2022-10-11T17:34:16.667Z,13.90
2022-10-11T17:36:43.832Z,13.70
2022-10-11T17:39:15.311Z,13.60
2022-10-11T17:41:42.683Z,13.50
2022-10-11T17:44:09.875Z,13.30
2022-10-11T17:46:36.665Z,13.20
2022-10-11T17:49:05.913Z,13.00
2022-10-11T17:51:33.202Z,12.90
2022-10-11T17:53:59.991Z,12.80
2022-10-11T17:56:30.385Z,12.70
2022-10-11T17:58:58.316Z,12.60
2022-10-11T18:01:27.236Z,12.50
2022-10-11T18:03:56.633Z,12.40
2022-10-11T18:06:23.759Z,12.30
2022-10-11T18:08:50.537Z,12.20
2022-10-11T18:11:18.519Z,12.10
2022-10-11T18:13:47.621Z,12.00
2022-10-11T18:16:15.161Z,11.90
2022-10-11T18:18:42.425Z,11.80
2022-10-11T18:21:09.854Z,11.70
2022-10-11T18:23:38.159Z,11.60
2022-10-11T18:26:15.696Z,11.50
2022-10-11T18:28:42.797Z,11.50
2022-10-11T18:31:17.368Z,11.40
2022-10-11T18:33:45.921Z,11.30
2022-10-11T18:36:13.954Z,11.20
2022-10-11T18:38:43.951Z,11.10
2022-10-11T18:41:10.984Z,11.10
2022-10-11T18:43:37.980Z,11.00
2022-10-11T18:46:09.820Z,10.90
2022-10-11T18:48:36.547Z,10.80
2022-10-11T18:51:14.924Z,10.80
2022-10-11T18:53:41.782Z,10.70
2022-10-11T18:56:09.672Z,10.60
2022-10-11T18:58:37.243Z,10.60
2022-10-11T19:01:25.452Z,10.60
2022-10-11T19:03:53.734Z,10.50
2022-10-11T19:06:22.519Z,10.40
2022-10-11T19:09:00.458Z,10.30
2022-10-11T19:11:27.384Z,10.30
2022-10-11T19:14:06.348Z,10.20
2022-10-11T19:16:33.501Z,10.10
2022-10-11T19:19:00.434Z,10.00
2022-10-11T19:21:28.661Z,10.00
2022-10-11T19:23:55.654Z,9.90
2022-10-11T19:26:31.271Z,9.90
2022-10-11T19:29:00.264Z,9.80
2022-10-11T19:31:27.073Z,9.80
2022-10-11T19:33:53.856Z,9.80
2022-10-11T19:36:23.247Z,9.70
2022-10-11T19:38:50.977Z,9.70
2022-10-11T19:41:19.234Z,9.60
2022-10-11T19:43:46.310Z,9.50
2022-10-11T19:46:20.179Z,9.50
2022-10-11T19:48:50.392Z,9.40
2022-10-11T19:51:18.084Z,9.30
2022-10-11T19:53:45.022Z,9.30
2022-10-11T19:56:18.251Z,9.30
2022-10-11T19:58:45.569Z,9.20
2022-10-11T20:01:17.790Z,9.20
2022-10-11T20:03:46.757Z,9.10
2022-10-11T20:06:14.068Z,9.00
2022-10-11T20:08:40.741Z,9.00
2022-10-11T20:11:08.542Z,8.90
2022-10-11T20:13:36.008Z,8.90
2022-10-11T20:16:08.112Z,8.80
2022-10-11T20:18:35.051Z,8.80
2022-10-11T20:21:05.919Z,8.80
2022-10-11T20:23:33.003Z,8.80
2022-10-11T20:26:17.210Z,8.70
2022-10-11T20:28:44.080Z,8.70
2022-10-11T20:31:14.759Z,8.60
2022-10-11T20:33:41.523Z,8.50
2022-10-11T20:36:09.314Z,8.50
2022-10-11T20:38:36.807Z,8.40
2022-10-11T20:41:10.706Z,8.40
2022-10-11T20:43:37.869Z,8.30
2022-10-11T20:46:09.517Z,8.40
2022-10-11T20:48:36.741Z,8.30
2022-10-11T20:51:03.863Z,8.30
2022-10-11T20:53:30.778Z,8.20
2022-10-11T20:55:57.657Z,8.20
2022-10-11T20:58:24.511Z,8.20
2022-10-11T21:00:51.475Z,8.10
2022-10-11T21:03:18.375Z,8.10
2022-10-11T21:05:45.161Z,8.10
2022-10-11T21:08:11.982Z,8.10
2022-10-11T21:10:38.949Z,8.00
2022-10-11T21:13:05.677Z,7.90
2022-10-11T21:15:32.431Z,7.90
2022-10-11T21:17:59.192Z,7.90
2022-10-11T21:20:25.914Z,7.80
2022-10-11T21:22:52.675Z,7.90
2022-10-11T21:25:19.587Z,7.90
2022-10-11T21:27:46.235Z,7.80
2022-10-11T21:30:12.951Z,7.70
2022-10-11T21:32:39.609Z,7.80
2022-10-11T21:35:07.191Z,7.80
2022-10-11T21:37:34.040Z,7.70
2022-10-11T21:40:00.979Z,7.70
2022-10-11T21:42:29.641Z,7.70
2022-10-11T21:44:56.479Z,7.60
2022-10-11T21:47:23.274Z,7.60
2022-10-11T21:49:50.347Z,7.50
2022-10-11T21:52:17.132Z,7.50
2022-10-11T21:54:43.920Z,7.50
2022-10-11T21:57:11.364Z,7.40
2022-10-11T21:59:38.069Z,7.40
2022-10-11T22:02:05.155Z,7.40
2022-10-11T22:04:32.162Z,7.30
2022-10-11T22:06:58.998Z,7.30
2022-10-11T22:09:27.702Z,7.30
2022-10-11T22:11:54.573Z,7.30
2022-10-11T22:14:21.349Z,7.30
2022-10-11T22:16:48.091Z,7.30
2022-10-11T22:19:14.922Z,7.30
2022-10-11T22:21:45.071Z,7.30
2022-10-11T22:24:12.150Z,7.30
2022-10-11T22:26:38.808Z,7.30
2022-10-11T22:29:06.191Z,7.20
2022-10-11T22:31:34.268Z,7.20
2022-10-11T22:34:01.108Z,7.20
2022-10-11T22:36:28.825Z,7.20
2022-10-11T22:38:55.537Z,7.10
2022-10-11T22:41:22.378Z,7.10
2022-10-11T22:43:49.138Z,7.10
2022-10-11T22:46:15.925Z,7.10
2022-10-11T22:48:42.575Z,7.10
2022-10-11T22:51:09.760Z,7.10
2022-10-11T22:53:36.556Z,7.10
2022-10-11T22:56:03.640Z,7.10
2022-10-11T22:58:30.295Z,7.10
2022-10-11T23:00:57.058Z,7.10
2022-10-11T23:03:24.055Z,7.00
2022-10-11T23:05:57.262Z,7.00
2022-10-11T23:08:24.181Z,7.00
2022-10-11T23:10:50.885Z,6.90
2022-10-11T23:13:17.587Z,6.90
2022-10-11T23:15:44.349Z,6.90
2022-10-11T23:18:11.388Z,6.90
2022-10-11T23:20:38.282Z,6.90
2022-10-11T23:23:05.655Z,6.90
2022-10-11T23:25:32.429Z,6.90
2022-10-11T23:28:02.403Z,6.90
2022-10-11T23:30:29.452Z,6.80
2022-10-11T23:32:56.175Z,6.80
2022-10-11T23:35:22.891Z,6.80
2022-10-11T23:37:49.560Z,6.70
2022-10-11T23:40:16.314Z,6.80
2022-10-11T23:42:43.226Z,6.80
2022-10-11T23:45:10.338Z,6.80
2022-10-11T23:47:37.477Z,6.80
2022-10-11T23:50:04.839Z,6.80
2022-10-11T23:52:31.551Z,6.80
2022-10-11T23:54:58.275Z,6.80
2022-10-11T23:57:24.982Z,6.70
2022-10-11T23:59:51.908Z,6.70
